Time;durP1;ratioP1;P1;durP2;ratioP2;P2;SDS_P1;SDS_P2;PMS_P1;PMS_P2;Temp;Humidity;BMP_temperature;BMP_pressure;BME280_temperature;BME280_humidity;BME280_pressure;Samples;Min_cycle;Max_cycle;Signal;HPM_P1;HPM_P2
2021/08/12 00:00:57;;;;;;;19.67;11.50;;;;;;;22.29;64.91;101270.95;1716350;83;20948;-77
2021/08/12 00:03:23;;;;;;;17.37;11.40;;;;;;;22.28;65.41;101278.53;1716275;83;21047;-76
2021/08/12 00:05:49;;;;;;;17.20;10.48;;;;;;;22.28;65.77;101278.53;1716272;82;21156;-77
2021/08/12 00:08:16;;;;;;;14.78;9.65;;;;;;;22.27;66.22;101287.48;1717975;83;21557;-75
2021/08/12 00:10:42;;;;;;;15.20;9.58;;;;;;;22.27;66.78;101288.80;1718059;83;20919;-84
2021/08/12 00:13:09;;;;;;;17.60;9.55;;;;;;;22.25;67.08;101289.44;1718089;83;20975;-79
2021/08/12 00:15:35;;;;;;;14.30;8.48;;;;;;;22.21;67.45;101288.93;1718025;83;20896;-81
2021/08/12 00:18:02;;;;;;;12.75;8.70;;;;;;;22.18;67.91;101284.48;1717899;83;21141;-76
2021/08/12 00:20:29;;;;;;;15.32;9.03;;;;;;;22.13;68.22;101291.56;1717839;83;20944;-71
2021/08/12 00:22:55;;;;;;;18.15;8.93;;;;;;;22.09;68.57;101292.38;1718063;83;20971;-82
2021/08/12 00:25:22;;;;;;;11.53;8.20;;;;;;;22.05;68.81;101288.88;1718018;83;20967;-75
2021/08/12 00:27:49;;;;;;;15.03;8.53;;;;;;;22.04;69.23;101291.20;1718042;83;20999;-81
2021/08/12 00:30:16;;;;;;;13.75;8.45;;;;;;;22.05;69.45;101292.84;1693547;83;21157;-75
2021/08/12 00:32:42;;;;;;;14.13;8.63;;;;;;;22.06;69.62;101293.19;1693482;83;20908;-80
2021/08/12 00:35:10;;;;;;;10.45;8.70;;;;;;;22.05;69.88;101287.06;1717894;83;21482;-78
2021/08/12 00:37:36;;;;;;;14.58;9.15;;;;;;;22.03;70.04;101287.73;1717853;83;21529;-74
2021/08/12 00:40:06;;;;;;;15.50;8.50;;;;;;;22.03;70.35;101289.05;1718032;83;21008;-80
2021/08/12 00:42:34;;;;;;;13.65;8.20;;;;;;;22.03;70.49;101289.05;1718048;83;21136;-80
2021/08/12 00:45:01;;;;;;;14.20;8.43;;;;;;;22.02;70.60;101285.23;1717910;83;20900;-79
2021/08/12 00:47:29;;;;;;;11.50;8.08;;;;;;;22.01;70.66;101285.75;1717919;83;21006;-76
2021/08/12 00:49:56;;;;;;;11.40;8.25;;;;;;;22.00;70.73;101289.38;1718011;83;21573;-77
2021/08/12 00:52:22;;;;;;;12.05;7.42;;;;;;;21.99;70.75;101290.84;1718179;83;20896;-83
2021/08/12 00:54:50;;;;;;;15.90;8.20;;;;;;;21.96;70.90;101287.20;1717960;82;21179;-74
2021/08/12 00:57:19;;;;;;;11.65;7.10;;;;;;;21.93;70.89;101280.42;1717793;83;20983;-79
2021/08/12 00:59:46;;;;;;;12.10;7.42;;;;;;;21.92;70.99;101285.88;1718004;83;21475;-78
2021/08/12 01:02:13;;;;;;;9.80;6.72;;;;;;;21.90;70.97;101284.70;1717828;83;20991;-76
2021/08/12 01:04:51;;;;;;;11.95;7.37;;;;;;;21.91;70.91;101285.54;1718549;83;21537;-78
2021/08/12 01:07:32;;;;;;;12.23;7.55;;;;;;;21.91;70.93;101289.50;1716553;83;21191;-76
2021/08/12 01:10:31;;;;;;;10.10;7.35;;;;;;;21.89;70.85;101296.77;1687489;83;20912;-76
2021/08/12 01:13:22;;;;;;;13.75;7.30;;;;;;;21.87;70.86;101293.41;1675922;85;21007;-75
2021/08/12 01:15:53;;;;;;;12.58;6.72;;;;;;;21.86;70.99;101298.34;1716132;83;20940;-74
2021/08/12 01:18:28;;;;;;;13.30;7.10;;;;;;;21.86;71.06;101300.50;1695371;83;21063;-76
2021/08/12 01:21:18;;;;;;;11.73;7.35;;;;;;;21.84;71.09;101298.52;1716030;83;21123;-78
2021/08/12 01:23:45;;;;;;;13.68;7.80;;;;;;;21.83;71.11;101292.06;1708003;83;20932;-74
2021/08/12 01:26:14;;;;;;;12.23;8.45;;;;;;;21.82;71.24;101291.75;1716148;83;20951;-77
2021/08/12 01:28:44;;;;;;;13.50;7.85;;;;;;;21.80;71.33;101293.70;1716473;83;20991;-76
2021/08/12 01:31:25;;;;;;;10.95;7.08;;;;;;;21.79;71.40;101297.35;1716658;83;20912;-76
2021/08/12 01:34:13;;;;;;;13.50;7.05;;;;;;;21.79;71.52;101296.03;1716211;83;21136;-73
2021/08/12 01:36:42;;;;;;;9.60;7.72;;;;;;;21.80;71.50;101301.14;1716445;83;20971;-79
2021/08/12 01:39:13;;;;;;;11.93;7.85;;;;;;;21.80;71.53;101298.50;1716296;83;20908;-76
2021/08/12 01:41:41;;;;;;;10.65;8.00;;;;;;;21.81;71.59;101292.73;1695876;83;21030;-76
2021/08/12 01:44:08;;;;;;;11.45;8.05;;;;;;;21.81;71.55;101290.91;1716105;83;20959;-74
2021/08/12 01:46:35;;;;;;;10.55;7.62;;;;;;;21.83;71.52;101286.78;1716171;83;21485;-73
2021/08/12 01:49:03;;;;;;;10.15;7.70;;;;;;;21.82;71.53;101289.94;1716066;83;21040;-73
2021/08/12 01:51:31;;;;;;;12.90;8.20;;;;;;;21.83;71.48;101292.89;1716127;83;21556;-73
2021/08/12 01:54:00;;;;;;;12.90;8.20;;;;;;;21.84;71.53;101293.23;1716187;83;21531;-72
2021/08/12 01:56:28;;;;;;;13.83;8.18;;;;;;;21.85;71.55;101294.91;1719815;83;21466;-81
2021/08/12 01:59:00;;;;;;;12.85;8.70;;;;;;;21.85;71.53;101300.19;1716020;83;21526;-72
2021/08/12 02:01:28;;;;;;;10.37;8.13;;;;;;;21.85;71.52;101299.36;1716472;83;20924;-77
2021/08/12 02:03:55;;;;;;;12.50;8.98;;;;;;;21.86;71.62;101307.59;1716245;83;21411;-79
2021/08/12 02:06:23;;;;;;;14.25;10.25;;;;;;;21.86;71.67;101295.70;1715989;83;20984;-72
2021/08/12 02:08:50;;;;;;;13.93;10.65;;;;;;;21.86;71.60;101297.03;1674152;85;21035;-75
2021/08/12 02:11:18;;;;;;;15.98;10.53;;;;;;;21.84;71.66;101295.05;1674101;85;21165;-76
2021/08/12 02:13:45;;;;;;;16.67;10.43;;;;;;;21.83;71.77;101300.82;1715989;83;20901;-74
2021/08/12 02:16:11;;;;;;;18.12;10.75;;;;;;;21.82;71.78;101303.64;1695761;83;20948;-77
2021/08/12 02:18:41;;;;;;;16.32;10.13;;;;;;;21.79;71.80;101307.44;1716211;83;21057;-80
2021/08/12 02:21:17;;;;;;;15.38;9.28;;;;;;;21.79;71.87;101306.59;1719918;83;21015;-80
2021/08/12 02:24:10;;;;;;;18.05;10.72;;;;;;;21.77;71.86;101305.91;1716231;83;21787;-85
2021/08/12 02:26:41;;;;;;;19.15;9.60;;;;;;;21.77;71.87;101311.19;1716066;83;21599;-80
2021/08/12 02:29:08;;;;;;;19.12;10.72;;;;;;;21.74;71.95;101312.83;1715897;83;20995;-76
2021/08/12 02:31:36;;;;;;;19.55;10.68;;;;;;;21.70;72.06;101314.16;1716121;83;20943;-77
2021/08/12 02:34:02;;;;;;;12.40;10.53;;;;;;;21.67;72.13;101302.55;1716363;83;21070;-77
2021/08/12 02:36:30;;;;;;;19.45;11.57;;;;;;;21.65;72.29;101308.00;1716303;83;21174;-76
2021/08/12 02:38:57;;;;;;;18.23;12.10;;;;;;;21.63;72.38;101306.83;1716339;83;20897;-77
2021/08/12 02:41:25;;;;;;;22.50;12.73;;;;;;;21.59;72.53;101308.63;1696518;83;21034;-79
2021/08/12 02:43:52;;;;;;;19.32;14.20;;;;;;;21.56;72.71;101307.14;1716739;83;20979;-76
2021/08/12 02:46:21;;;;;;;23.40;15.03;;;;;;;21.51;72.85;101305.45;1716638;83;20948;-77
2021/08/12 02:48:49;;;;;;;24.95;17.00;;;;;;;21.46;73.03;101309.06;1717104;83;21134;-80
2021/08/12 02:51:16;;;;;;;27.98;19.42;;;;;;;21.43;73.21;101309.38;1716899;83;20860;-78
2021/08/12 02:53:42;;;;;;;26.87;19.07;;;;;;;21.43;73.43;101313.82;1716556;83;20943;-79
2021/08/12 02:56:10;;;;;;;27.55;19.05;;;;;;;21.42;73.51;101316.11;1717100;83;21078;-76
2021/08/12 02:58:41;;;;;;;30.40;19.80;;;;;;;21.40;73.64;101320.25;1716521;83;21386;-73
2021/08/12 03:01:08;;;;;;;31.25;19.40;;;;;;;21.39;73.76;101324.34;1717088;83;21143;-82
2021/08/12 03:03:36;;;;;;;28.32;18.48;;;;;;;21.35;73.84;101324.31;1717162;83;20892;-77
2021/08/12 03:06:04;;;;;;;24.05;17.67;;;;;;;21.33;73.98;101323.16;1717486;83;21055;-86
2021/08/12 03:08:30;;;;;;;25.00;16.87;;;;;;;21.31;73.99;101315.06;1697498;83;21059;-81
2021/08/12 03:10:57;;;;;;;23.35;17.07;;;;;;;21.29;74.07;101320.48;1718088;83;20913;-89
2021/08/12 03:13:23;;;;;;;21.85;15.65;;;;;;;21.28;74.20;101316.70;1718615;80;21136;-80
2021/08/12 03:15:51;;;;;;;24.75;15.13;;;;;;;21.26;74.39;101322.59;1717807;83;21501;-78
2021/08/12 03:18:18;;;;;;;19.60;14.98;;;;;;;21.24;74.65;101331.17;1718111;83;20896;-76
2021/08/12 03:20:44;;;;;;;22.27;13.60;;;;;;;21.22;74.96;101330.52;1697102;83;20991;-76
2021/08/12 03:23:12;;;;;;;17.87;13.48;;;;;;;21.20;75.18;101325.37;1717390;83;20983;-81
2021/08/12 03:25:39;;;;;;;21.00;13.95;;;;;;;21.20;75.27;101321.90;1674475;83;21155;-79
2021/08/12 03:28:05;;;;;;;22.48;14.20;;;;;;;21.20;75.44;101332.45;1717675;83;21046;-81
2021/08/12 03:30:32;;;;;;;23.42;14.95;;;;;;;21.21;75.61;101336.28;1717402;83;21536;-73
2021/08/12 03:33:00;;;;;;;20.48;15.55;;;;;;;21.20;75.75;101338.57;1716815;83;21043;-75
2021/08/12 03:35:26;;;;;;;23.27;15.05;;;;;;;21.21;76.00;101340.23;1716618;83;21038;-77
2021/08/12 03:37:53;;;;;;;22.65;15.93;;;;;;;21.21;76.16;101341.56;1716779;83;21183;-77
2021/08/12 03:40:20;;;;;;;26.45;15.70;;;;;;;21.23;76.33;101340.06;1716897;83;20987;-78
2021/08/12 03:42:47;;;;;;;20.32;14.45;;;;;;;21.23;76.45;101341.39;1716642;83;21521;-78
2021/08/12 03:45:14;;;;;;;21.45;14.00;;;;;;;21.22;76.54;101344.52;1716689;83;21008;-73
2021/08/12 03:47:40;;;;;;;20.60;15.28;;;;;;;21.21;76.77;101346.84;1696903;83;21102;-76
2021/08/12 03:50:08;;;;;;;18.30;12.55;;;;;;;21.23;77.04;101354.59;1717153;83;21149;-74
2021/08/12 03:52:35;;;;;;;19.25;12.60;;;;;;;21.26;77.24;101370.12;1716880;83;21501;-77
2021/08/12 03:55:03;;;;;;;17.67;12.07;;;;;;;21.25;77.35;101371.92;1716702;83;21458;-77
2021/08/12 03:57:30;;;;;;;18.85;12.03;;;;;;;21.24;77.52;101371.61;1716425;83;21066;-77
2021/08/12 03:59:56;;;;;;;21.23;12.40;;;;;;;21.24;77.68;101379.53;1716468;83;21093;-75
2021/08/12 04:02:23;;;;;;;19.52;11.70;;;;;;;21.25;77.91;101373.77;1716251;83;21796;-76
2021/08/12 04:04:50;;;;;;;18.85;11.93;;;;;;;21.27;78.10;101381.86;1716069;83;20967;-74
2021/08/12 04:07:17;;;;;;;15.45;12.03;;;;;;;21.28;78.29;101380.89;1716199;83;20908;-78
2021/08/12 04:09:43;;;;;;;17.32;11.43;;;;;;;21.31;78.76;101381.91;1716087;83;20947;-76
2021/08/12 04:12:10;;;;;;;16.60;10.70;;;;;;;21.32;78.95;101384.86;1675604;85;20950;-77
2021/08/12 04:14:37;;;;;;;12.43;9.68;;;;;;;21.36;79.21;101384.06;1704044;84;21532;-75
2021/08/12 04:17:04;;;;;;;14.73;9.05;;;;;;;21.41;79.27;101388.41;1716138;83;20971;-77
2021/08/12 04:19:31;;;;;;;13.28;9.03;;;;;;;21.46;79.34;101388.28;1716320;83;20923;-81
2021/08/12 04:21:58;;;;;;;15.75;8.95;;;;;;;21.53;79.26;101391.14;1716270;83;20911;-77
2021/08/12 04:24:24;;;;;;;11.83;8.68;;;;;;;21.59;79.04;101388.70;1716253;83;20991;-75
2021/08/12 04:26:52;;;;;;;13.68;8.83;;;;;;;21.64;78.86;101390.88;1716136;83;21156;-74
2021/08/12 04:29:18;;;;;;;15.00;8.58;;;;;;;21.68;78.45;101385.63;1716350;83;20936;-69
2021/08/12 04:31:45;;;;;;;16.80;8.80;;;;;;;21.74;78.25;101387.64;1716204;83;20976;-78
2021/08/12 04:34:13;;;;;;;17.82;8.28;;;;;;;21.79;78.26;101388.50;1716218;83;21024;-76
2021/08/12 04:36:40;;;;;;;19.45;8.48;;;;;;;21.87;77.98;101389.86;1716414;83;21482;-75
2021/08/12 04:39:07;;;;;;;19.50;9.25;;;;;;;21.91;77.53;101393.89;1716110;83;21139;-76
2021/08/12 04:41:35;;;;;;;18.02;8.40;;;;;;;21.96;77.31;101396.88;1695997;83;20921;-83
2021/08/12 04:44:01;;;;;;;16.35;8.60;;;;;;;22.00;76.93;101400.38;1716121;83;21089;-81
2021/08/12 04:46:27;;;;;;;15.45;9.53;;;;;;;22.05;76.69;101400.73;1716329;83;20904;-74
2021/08/12 04:48:56;;;;;;;16.32;9.08;;;;;;;22.11;76.46;101398.77;1716503;83;20936;-76
2021/08/12 04:51:23;;;;;;;13.38;8.38;;;;;;;22.17;76.22;101403.94;1716502;83;21052;-75
2021/08/12 04:53:50;;;;;;;12.98;8.25;;;;;;;22.22;76.02;101396.84;1716276;83;20923;-74
2021/08/12 04:56:17;;;;;;;14.68;8.38;;;;;;;22.27;75.68;101402.01;1716174;83;21092;-76
2021/08/12 04:58:44;;;;;;;14.10;8.30;;;;;;;22.33;75.27;101407.98;1716260;83;20995;-79
2021/08/12 05:01:10;;;;;;;15.65;9.45;;;;;;;22.38;75.06;101404.35;1716489;83;21022;-79
2021/08/12 05:03:37;;;;;;;11.12;9.00;;;;;;;22.47;74.83;101413.14;1716330;83;21136;-75
2021/08/12 05:06:05;;;;;;;15.55;9.18;;;;;;;22.52;74.42;101409.05;1716432;83;20940;-83
2021/08/12 05:08:32;;;;;;;24.27;9.23;;;;;;;22.60;73.82;101403.77;1694425;83;20975;-81
2021/08/12 05:10:59;;;;;;;18.57;9.03;;;;;;;22.65;73.37;101404.62;1718136;83;21590;-80
2021/08/12 05:13:26;;;;;;;10.65;7.53;;;;;;;22.71;73.26;101400.03;1718616;83;20940;-80
2021/08/12 05:15:52;;;;;;;12.53;8.20;;;;;;;22.79;72.92;101393.42;1718251;83;21525;-77
2021/08/12 05:18:19;;;;;;;13.45;8.40;;;;;;;22.88;72.39;101393.77;1717982;83;21085;-80
2021/08/12 05:20:45;;;;;;;9.30;7.35;;;;;;;22.95;72.09;101396.09;1718729;83;21066;-85
2021/08/12 05:23:15;;;;;;;12.30;8.00;;;;;;;23.05;71.87;101389.33;1718107;83;21561;-79
2021/08/12 05:25:44;;;;;;;11.70;7.37;;;;;;;23.13;71.03;101395.44;1718090;83;21051;-84
2021/08/12 05:28:12;;;;;;;15.98;8.03;;;;;;;23.21;70.16;101394.62;1718009;83;21636;-82
2021/08/12 05:30:38;;;;;;;12.75;7.05;;;;;;;23.27;69.74;101397.94;1717933;83;21517;-79
2021/08/12 05:33:05;;;;;;;14.07;7.42;;;;;;;23.38;68.89;101405.56;1718062;83;20907;-77
2021/08/12 05:35:32;;;;;;;11.22;6.92;;;;;;;23.49;68.06;101412.36;1717972;83;20900;-74
2021/08/12 05:38:00;;;;;;;12.75;6.97;;;;;;;23.60;67.26;101416.01;1717812;83;21010;-85
2021/08/12 05:40:30;;;;;;;11.38;6.67;;;;;;;23.72;66.85;101423.94;1718191;83;21146;-74
2021/08/12 05:43:01;;;;;;;14.78;7.62;;;;;;;23.82;66.04;101416.64;1719186;83;20924;-76
2021/08/12 05:45:29;;;;;;;10.28;6.80;;;;;;;23.93;64.94;101422.89;1719023;83;20991;-78
2021/08/12 05:47:56;;;;;;;9.55;6.72;;;;;;;24.06;63.58;101425.05;1718674;83;20896;-85
2021/08/12 05:50:23;;;;;;;13.85;7.58;;;;;;;24.13;63.36;101428.67;1718543;83;20952;-81
2021/08/12 05:52:51;;;;;;;10.80;7.05;;;;;;;24.19;63.67;101433.30;1718012;82;21104;-78
2021/08/12 05:55:26;;;;;;;9.25;7.12;;;;;;;24.22;63.84;101428.97;1667409;84;20881;-79
2021/08/12 05:57:53;;;;;;;14.60;6.78;;;;;;;24.31;63.02;101428.47;1676274;84;20964;-79
2021/08/12 06:00:20;;;;;;;13.22;6.97;;;;;;;24.37;62.57;101433.08;1678562;85;21188;-77
2021/08/12 06:02:51;;;;;;;12.47;7.85;;;;;;;24.40;62.22;101432.24;1677725;84;21028;-83
2021/08/12 06:05:22;;;;;;;12.37;7.28;;;;;;;24.46;62.15;101433.37;1657083;85;21165;-87
2021/08/12 06:07:51;;;;;;;11.65;6.65;;;;;;;24.53;61.51;101433.02;1657380;85;21098;-79
2021/08/12 06:10:20;;;;;;;16.93;7.42;;;;;;;24.60;61.03;101435.31;1678155;84;21493;-81
2021/08/12 06:12:48;;;;;;;12.90;7.33;;;;;;;24.65;60.58;101440.42;1679937;85;21640;-84
2021/08/12 06:15:18;;;;;;;9.35;6.65;;;;;;;24.72;59.58;101444.03;1680148;85;20923;-83
2021/08/12 06:17:46;;;;;;;11.63;6.30;;;;;;;24.79;59.52;101443.34;1679856;85;21150;-76
2021/08/12 06:20:13;;;;;;;12.75;6.90;;;;;;;24.82;59.07;101438.54;1679508;85;21006;-83
2021/08/12 06:22:42;;;;;;;10.85;6.10;;;;;;;24.91;58.61;101444.62;1679699;85;21576;-84
2021/08/12 06:25:11;;;;;;;11.35;6.70;;;;;;;24.97;58.52;101446.57;1656620;85;21441;-85
2021/08/12 06:27:40;;;;;;;11.80;6.30;;;;;;;25.03;58.54;101452.50;1694858;84;20883;-82
2021/08/12 06:30:09;;;;;;;11.00;6.60;;;;;;;25.07;58.05;101454.64;1675402;84;21155;-87
2021/08/12 06:32:37;;;;;;;9.43;6.37;;;;;;;25.14;57.84;101455.56;1694678;84;21057;-84
2021/08/12 06:35:11;;;;;;;11.22;6.87;;;;;;;25.20;57.49;101462.02;1678968;84;21504;-77
2021/08/12 06:37:45;;;;;;;17.00;6.67;;;;;;;25.25;57.64;101467.13;1660318;85;20922;-79
2021/08/12 06:40:16;;;;;;;9.65;6.45;;;;;;;25.31;57.43;101461.59;1651222;86;21005;-81
2021/08/12 06:42:44;;;;;;;11.48;6.62;;;;;;;25.37;56.71;101462.21;1666327;85;22208;-80
2021/08/12 06:45:15;;;;;;;11.55;6.47;;;;;;;25.46;56.67;101465.16;1650203;85;21033;-86
2021/08/12 06:47:43;;;;;;;22.20;7.27;;;;;;;25.54;56.38;101465.60;1650795;87;20909;-77
2021/08/12 06:50:12;;;;;;;8.45;6.08;;;;;;;25.61;56.44;101470.53;1676380;85;21535;-73
2021/08/12 06:52:42;;;;;;;12.35;7.53;;;;;;;25.68;56.46;101466.98;1628553;86;21008;-78
2021/08/12 06:55:12;;;;;;;13.35;7.25;;;;;;;25.78;55.50;101466.73;1667208;84;21154;-83
2021/08/12 06:57:40;;;;;;;11.97;6.58;;;;;;;25.86;54.82;101469.30;1632344;85;21096;-81
2021/08/12 07:00:10;;;;;;;9.88;5.80;;;;;;;25.92;54.97;101472.56;1670486;84;21090;-80
2021/08/12 07:02:39;;;;;;;10.93;6.55;;;;;;;25.97;54.42;101460.89;1663811;84;47114;-77
2021/08/12 07:05:12;;;;;;;8.35;5.72;;;;;;;26.04;53.77;101469.77;1672815;85;21631;-82
2021/08/12 07:07:40;;;;;;;9.90;6.00;;;;;;;26.10;53.57;101470.90;1659219;83;21200;-84
2021/08/12 07:10:08;;;;;;;8.80;5.75;;;;;;;26.16;53.62;101473.69;1671385;84;20928;-81
2021/08/12 07:12:38;;;;;;;14.98;6.33;;;;;;;26.22;53.21;101478.78;1682618;85;21478;-72
2021/08/12 07:15:09;;;;;;;10.95;6.40;;;;;;;26.26;53.43;101478.20;1683012;83;20908;-82
2021/08/12 07:17:36;;;;;;;11.83;5.30;;;;;;;26.34;52.83;101475.14;1683150;84;20979;-79
2021/08/12 07:20:06;;;;;;;7.03;5.55;;;;;;;26.40;52.70;101473.90;1680091;84;21131;-75
2021/08/12 07:22:35;;;;;;;8.55;5.75;;;;;;;26.47;51.84;101478.81;1656815;84;20921;-79
2021/08/12 07:25:04;;;;;;;11.70;6.22;;;;;;;26.53;50.96;101474.08;1698643;84;21534;-76
2021/08/12 07:27:31;;;;;;;9.40;6.08;;;;;;;26.57;51.23;101475.36;1696598;84;20995;-80
2021/08/12 07:29:57;;;;;;;8.53;6.42;;;;;;;26.61;51.30;101477.16;1697480;84;21570;-76
2021/08/12 07:32:25;;;;;;;9.75;5.67;;;;;;;26.67;50.35;101476.41;1698381;83;21151;-74
2021/08/12 07:34:53;;;;;;;6.70;5.70;;;;;;;26.72;50.53;101478.82;1698946;83;20952;-89
2021/08/12 07:37:21;;;;;;;12.70;5.78;;;;;;;26.77;50.92;101476.41;1699092;84;20913;-80
2021/08/12 07:39:50;;;;;;;13.25;5.55;;;;;;;26.83;50.76;101476.22;1695915;84;20927;-77
2021/08/12 07:42:19;;;;;;;10.08;5.58;;;;;;;26.91;50.46;101474.77;1682743;85;21506;-72
2021/08/12 07:44:47;;;;;;;8.85;5.03;;;;;;;26.98;49.79;101475.67;1672568;84;20878;-74
2021/08/12 07:47:16;;;;;;;12.07;5.45;;;;;;;27.05;49.17;101478.41;1670806;84;21056;-86
2021/08/12 07:49:44;;;;;;;8.20;5.00;;;;;;;27.08;49.11;101476.69;1670929;84;21015;-86
2021/08/12 07:52:12;;;;;;;7.08;4.42;;;;;;;27.15;49.37;101477.59;1670910;86;21023;-73
2021/08/12 07:54:42;;;;;;;8.85;5.10;;;;;;;27.20;48.25;101472.51;1670928;86;21004;-78
2021/08/12 07:57:09;;;;;;;8.30;4.28;;;;;;;27.25;48.28;101474.91;1670939;84;21839;-77
2021/08/12 07:59:38;;;;;;;6.75;5.17;;;;;;;27.31;47.80;101476.02;1681166;84;20961;-83
2021/08/12 08:02:06;;;;;;;10.28;6.35;;;;;;;27.35;48.16;101479.92;1691618;84;21028;-80
2021/08/12 08:04:33;;;;;;;9.13;5.78;;;;;;;27.34;48.47;101484.96;1699167;84;20964;-82
2021/08/12 08:07:01;;;;;;;8.48;5.90;;;;;;;27.36;48.61;101478.92;1699169;84;20952;-85
2021/08/12 08:09:29;;;;;;;16.52;6.12;;;;;;;27.42;48.63;101471.99;1689342;84;21805;-80
2021/08/12 08:11:58;;;;;;;14.63;4.92;;;;;;;27.53;48.76;101472.35;1682934;84;21458;-81
2021/08/12 08:14:26;;;;;;;13.98;5.12;;;;;;;27.68;48.63;101474.92;1674883;85;21000;-81
2021/08/12 08:16:54;;;;;;;7.67;5.28;;;;;;;27.82;48.21;101466.81;1688893;84;21019;-76
2021/08/12 08:19:25;;;;;;;7.97;5.30;;;;;;;27.97;47.92;101464.56;1686442;84;20935;-77
2021/08/12 08:21:54;;;;;;;10.05;5.03;;;;;;;28.10;47.31;101462.84;1685662;84;21818;-82
2021/08/12 08:24:24;;;;;;;8.43;4.92;;;;;;;28.26;47.28;101459.03;1676995;84;21645;-77
2021/08/12 08:26:53;;;;;;;5.37;4.85;;;;;;;28.34;46.18;101461.52;1685779;83;21039;-77
2021/08/12 08:29:21;;;;;;;10.82;4.60;;;;;;;28.32;45.59;101464.91;1707286;83;21006;-74
2021/08/12 08:31:51;;;;;;;8.48;4.70;;;;;;;28.22;45.11;101461.77;1687824;83;21506;-81
2021/08/12 08:34:18;;;;;;;7.45;4.67;;;;;;;28.12;45.38;101459.97;1679984;84;21098;-77
2021/08/12 08:36:45;;;;;;;6.97;4.67;;;;;;;28.10;45.24;101457.51;1690949;83;20999;-81
2021/08/12 08:39:12;;;;;;;9.30;4.67;;;;;;;28.16;45.64;101459.89;1682785;83;21138;-75
2021/08/12 08:41:42;;;;;;;7.62;4.60;;;;;;;28.20;44.99;101462.49;1682389;85;21087;-82
2021/08/12 08:44:09;;;;;;;6.78;4.72;;;;;;;28.14;45.59;101457.44;1682821;85;20874;-76
2021/08/12 08:46:36;;;;;;;8.60;4.60;;;;;;;28.09;45.41;101459.85;1682225;83;21134;-73
2021/08/12 08:49:06;;;;;;;7.47;4.47;;;;;;;28.13;45.46;101457.62;1620620;85;21081;-78
2021/08/12 08:51:36;;;;;;;6.85;5.60;;;;;;;28.14;45.06;101464.11;1682741;85;21564;-75
2021/08/12 08:54:05;;;;;;;7.97;5.03;;;;;;;28.14;44.52;101463.28;1682817;84;21631;-82
2021/08/12 08:56:32;;;;;;;9.30;4.65;;;;;;;28.19;44.29;101458.16;1682999;84;21051;-76
2021/08/12 08:58:59;;;;;;;6.97;4.83;;;;;;;28.31;43.70;101459.25;1691379;83;22003;-74
2021/08/12 09:01:28;;;;;;;10.23;4.47;;;;;;;28.40;43.08;101460.73;1665249;85;20968;-75
2021/08/12 09:03:55;;;;;;;11.65;5.87;;;;;;;28.49;44.14;101458.23;1691006;84;20921;-78
2021/08/12 09:06:22;;;;;;;10.35;5.67;;;;;;;28.73;43.96;101463.58;1691683;84;20968;-74
2021/08/12 09:08:51;;;;;;;11.83;4.70;;;;;;;28.96;44.08;101463.23;1691000;84;20893;-72
2021/08/12 09:11:26;;;;;;;9.80;5.00;;;;;;;29.14;43.00;101459.45;1665193;84;21624;-81
2021/08/12 09:13:54;;;;;;;11.08;4.78;;;;;;;29.19;42.07;101461.03;1670353;84;21527;-76
2021/08/12 09:16:43;;;;;;;8.68;4.65;;;;;;;29.07;41.57;101462.66;1671180;84;21525;-77
2021/08/12 09:19:28;;;;;;;8.88;4.45;;;;;;;29.00;42.08;101465.82;1687241;84;21010;-74
2021/08/12 09:21:59;;;;;;;13.78;5.62;;;;;;;29.09;42.51;101457.92;1684730;84;21069;-81
2021/08/12 09:24:26;;;;;;;7.10;5.12;;;;;;;29.21;42.51;101461.63;1689588;84;21170;-82
2021/08/12 09:26:57;;;;;;;7.95;5.60;;;;;;;29.30;41.48;101460.44;1684743;84;21004;-78
2021/08/12 09:29:37;;;;;;;8.18;5.42;;;;;;;29.31;41.07;101464.77;1690965;84;21562;-77
2021/08/12 09:32:05;;;;;;;9.68;5.72;;;;;;;29.39;41.05;101461.88;1687993;83;20968;-78
2021/08/12 09:34:49;;;;;;;8.60;5.37;;;;;;;29.55;41.15;101467.36;1690044;84;21174;-77
2021/08/12 09:37:17;;;;;;;8.73;6.08;;;;;;;29.68;39.58;101473.52;1663564;84;21783;-80
2021/08/12 09:39:46;;;;;;;6.55;5.25;;;;;;;29.71;39.64;101471.76;1690645;84;20921;-73
2021/08/12 09:42:14;;;;;;;5.47;4.95;;;;;;;29.76;39.27;101468.48;1691625;84;21515;-78
2021/08/12 09:44:52;;;;;;;8.55;5.60;;;;;;;29.81;39.09;101472.16;1670028;84;21455;-84
2021/08/12 09:47:28;;;;;;;8.83;6.42;;;;;;;29.89;39.19;101469.33;1686664;84;21569;-75
2021/08/12 09:49:59;;;;;;;9.23;6.25;;;;;;;30.06;39.76;101464.87;1684875;84;21828;-79
2021/08/12 09:52:37;;;;;;;7.83;5.50;;;;;;;30.18;39.33;101464.52;1690797;84;20913;-78
2021/08/12 09:55:21;;;;;;;7.22;5.05;;;;;;;30.12;38.48;101466.70;1694363;84;20938;-78
2021/08/12 09:57:55;;;;;;;6.90;5.30;;;;;;;30.01;37.90;101468.16;1700932;84;21106;-76
2021/08/12 10:00:48;;;;;;;7.70;5.25;;;;;;;30.39;37.86;101461.08;1700410;84;20956;-79
2021/08/12 10:03:32;;;;;;;12.05;5.17;;;;;;;31.17;36.11;101464.94;1712924;83;21224;-81
2021/08/12 10:06:06;;;;;;;5.87;5.00;;;;;;;32.45;34.39;101455.57;1686968;83;21569;-76
2021/08/12 10:08:39;;;;;;;7.90;4.28;;;;;;;33.85;32.60;101451.97;1713542;83;21011;-78
2021/08/12 10:11:28;;;;;;;14.05;4.97;;;;;;;34.78;30.29;101457.17;1718810;83;21351;-84
2021/08/12 10:14:00;;;;;;;11.40;4.67;;;;;;;35.52;29.52;101457.36;1718035;83;21046;-78
2021/08/12 10:16:32;;;;;;;14.47;5.12;;;;;;;36.03;28.72;101450.83;1717748;83;21119;-76
2021/08/12 10:19:03;;;;;;;11.43;4.75;;;;;;;36.79;27.94;101447.20;1717884;83;21451;-81
2021/08/12 10:21:37;;;;;;;6.17;4.15;;;;;;;37.42;26.78;101449.65;1693980;83;21514;-80
2021/08/12 10:24:06;;;;;;;8.23;4.53;;;;;;;37.33;25.04;101450.68;1718269;83;20940;-78
2021/08/12 10:26:34;;;;;;;8.00;4.28;;;;;;;36.83;25.38;101450.19;1718547;82;21032;-79
2021/08/12 10:29:12;;;;;;;6.55;4.00;;;;;;;36.65;26.36;101460.02;1718249;83;21781;-79
2021/08/12 10:31:45;;;;;;;5.50;3.77;;;;;;;36.22;26.25;101471.67;1718122;83;20920;-76
2021/08/12 10:34:12;;;;;;;5.50;3.90;;;;;;;35.64;26.71;101473.52;1719047;83;21517;-79
2021/08/12 10:36:39;;;;;;;5.58;3.70;;;;;;;34.88;26.95;101468.13;1718553;83;21446;-79
2021/08/12 10:39:07;;;;;;;8.40;4.20;;;;;;;34.19;27.98;101463.77;1719266;83;21030;-78
2021/08/12 10:41:36;;;;;;;4.62;3.90;;;;;;;33.56;29.26;101460.94;1718397;83;21163;-80
2021/08/12 10:44:05;;;;;;;7.47;4.35;;;;;;;33.22;30.14;101467.92;1686241;83;21597;-84
2021/08/12 10:46:39;;;;;;;6.92;4.03;;;;;;;32.89;30.64;101466.52;1685121;84;20968;-76
2021/08/12 10:49:32;;;;;;;5.70;3.95;;;;;;;32.53;30.93;101472.44;1653292;86;21003;-75
2021/08/12 10:52:06;;;;;;;8.65;4.37;;;;;;;32.18;31.82;101456.12;1652996;86;20992;-78
2021/08/12 10:54:37;;;;;;;11.28;4.40;;;;;;;32.06;33.07;101460.08;1652707;85;21205;-82
2021/08/12 10:57:25;;;;;;;6.58;3.85;;;;;;;32.26;33.15;101458.52;1653186;86;20965;-76
2021/08/12 10:59:53;;;;;;;5.75;4.37;;;;;;;32.43;32.79;101459.02;1653028;85;21056;-83
2021/08/12 11:02:36;;;;;;;7.90;4.40;;;;;;;32.53;32.38;101463.86;1653283;86;20943;-80
2021/08/12 11:05:05;;;;;;;10.65;4.30;;;;;;;32.48;32.28;101454.33;1653411;86;21037;-79
2021/08/12 11:07:43;;;;;;;6.40;4.33;;;;;;;32.49;32.33;101463.48;1653032;85;21532;-76
2021/08/12 11:10:14;;;;;;;8.90;4.42;;;;;;;32.48;32.24;101455.12;1652945;85;21022;-82
2021/08/12 11:12:59;;;;;;;8.05;4.45;;;;;;;32.51;32.63;101465.96;1653370;86;21018;-80
2021/08/12 11:15:44;;;;;;;9.75;4.70;;;;;;;32.44;32.60;101459.33;1653180;86;20942;-80
2021/08/12 11:18:14;;;;;;;6.70;4.20;;;;;;;32.40;32.64;101464.84;1653348;86;20990;-78
2021/08/12 11:20:46;;;;;;;9.08;4.22;;;;;;;32.33;31.71;101472.16;1653361;86;20930;-79
2021/08/12 11:23:25;;;;;;;5.00;3.87;;;;;;;32.13;32.35;101470.75;1653136;86;20962;-84
2021/08/12 11:26:01;;;;;;;6.83;3.98;;;;;;;32.02;31.85;101455.33;1653390;86;20966;-77
2021/08/12 11:28:47;;;;;;;13.05;4.75;;;;;;;31.84;32.62;101465.03;1653399;86;20907;-78
2021/08/12 11:31:23;;;;;;;8.55;4.10;;;;;;;31.82;32.24;101465.75;1653226;85;21637;-81